Time;durP1;ratioP1;P1;durP2;ratioP2;P2;SDS_P1;SDS_P2;PMS_P1;PMS_P2;Temp;Humidity;BMP_temperature;BMP_pressure;BME280_temperature;BME280_humidity;BME280_pressure;Samples;Min_cycle;Max_cycle;Signal;HPM_P1;HPM_P2
2022/01/09 00:00:10;;;;;;;7.10;4.53;;;3.60;99.90;;;;;;5100634;28;20203;-65
2022/01/09 00:02:37;;;;;;;5.03;3.60;;;3.60;99.90;;;;;;5100132;28;20191;-67
2022/01/09 00:05:06;;;;;;;7.65;3.67;;;3.60;99.90;;;;;;5097345;28;20230;-66
2022/01/09 00:07:39;;;;;;;5.25;3.63;;;3.60;99.90;;;;;;5091899;28;20224;-66
2022/01/09 00:10:09;;;;;;;4.45;3.92;;;3.60;99.90;;;;;;5097733;28;20225;-67
2022/01/09 00:12:37;;;;;;;5.05;3.45;;;3.60;99.90;;;;;;5100609;28;20192;-68
2022/01/09 00:15:07;;;;;;;4.68;3.67;;;3.60;99.90;;;;;;5096235;27;20206;-67
2022/01/09 00:17:35;;;;;;;7.47;3.10;;;3.50;99.90;;;;;;5099795;28;20756;-67
2022/01/09 00:20:04;;;;;;;3.78;3.35;;;3.50;99.90;;;;;;5089756;28;20271;-67
2022/01/09 00:22:37;;;;;;;8.30;4.20;;;3.60;99.90;;;;;;5090600;28;20188;-64
2022/01/09 00:25:11;;;;;;;4.40;3.75;;;3.60;99.90;;;;;;5090136;28;20196;-67
2022/01/09 00:27:39;;;;;;;6.30;3.65;;;3.60;99.90;;;;;;5097515;28;20239;-66
2022/01/09 00:30:08;;;;;;;4.82;3.65;;;3.60;99.90;;;;;;5100194;27;20249;-67
2022/01/09 00:32:36;;;;;;;3.47;3.17;;;3.70;99.90;;;;;;5100832;28;20196;-65
2022/01/09 00:35:06;;;;;;;3.85;3.45;;;3.70;99.90;;;;;;5099137;28;20237;-66
2022/01/09 00:37:34;;;;;;;4.97;3.95;;;3.70;99.90;;;;;;5099340;28;20303;-66
2022/01/09 00:40:03;;;;;;;4.65;3.17;;;3.70;99.90;;;;;;5099879;28;20199;-66
2022/01/09 00:42:32;;;;;;;7.80;3.28;;;3.70;99.90;;;;;;5099910;28;20854;-66
2022/01/09 00:45:00;;;;;;;3.88;3.58;;;3.70;99.90;;;;;;5099961;28;20235;-66
2022/01/09 00:47:28;;;;;;;4.00;3.33;;;3.70;99.90;;;;;;5099858;28;20215;-66
2022/01/09 00:49:56;;;;;;;3.45;2.70;;;3.70;99.90;;;;;;5099583;28;20731;-66
2022/01/09 00:52:23;;;;;;;3.53;3.03;;;3.70;99.90;;;;;;5099557;27;20283;-66
2022/01/09 00:54:51;;;;;;;3.85;3.28;;;3.80;99.90;;;;;;5098941;28;20698;-67
2022/01/09 00:57:19;;;;;;;4.63;2.92;;;3.80;99.90;;;;;;5099434;28;20230;-69
2022/01/09 00:59:48;;;;;;;3.80;2.63;;;3.80;99.90;;;;;;5099240;28;20199;-68
2022/01/09 01:02:16;;;;;;;4.75;3.42;;;3.80;99.90;;;;;;5099266;27;20206;-68
2022/01/09 01:04:44;;;;;;;5.40;3.78;;;3.70;99.90;;;;;;5099579;28;20284;-69
2022/01/09 01:07:12;;;;;;;2.67;2.47;;;3.70;99.90;;;;;;5099693;28;20224;-66
2022/01/09 01:09:40;;;;;;;4.80;2.83;;;3.80;99.90;;;;;;5099460;28;20899;-67
2022/01/09 01:12:08;;;;;;;4.93;2.47;;;3.90;99.90;;;;;;5100070;28;20220;-67
2022/01/09 01:14:37;;;;;;;3.30;3.00;;;3.80;99.90;;;;;;5100002;28;20273;-67
2022/01/09 01:17:07;;;;;;;3.22;2.92;;;3.80;99.90;;;;;;5099311;28;20246;-67
2022/01/09 01:19:36;;;;;;;3.53;3.22;;;3.80;99.90;;;;;;5099501;28;20207;-67
2022/01/09 01:22:23;;;;;;;3.15;2.50;;;3.80;99.90;;;;;;5099244;28;20207;-67
2022/01/09 01:24:52;;;;;;;4.13;3.10;;;3.90;99.90;;;;;;5099565;28;20287;-67
2022/01/09 01:27:20;;;;;;;4.03;3.03;;;3.80;99.90;;;;;;5099475;28;20219;-67
2022/01/09 01:29:48;;;;;;;3.63;3.33;;;3.80;99.90;;;;;;5100821;27;20208;-67
2022/01/09 01:32:17;;;;;;;3.47;3.13;;;3.80;99.90;;;;;;5099117;28;20827;-67
2022/01/09 01:34:45;;;;;;;3.28;2.92;;;3.80;99.90;;;;;;5099045;28;20219;-67
2022/01/09 01:37:13;;;;;;;3.70;3.35;;;3.80;99.90;;;;;;5098892;28;20215;-68
2022/01/09 01:39:41;;;;;;;3.00;2.72;;;3.90;99.90;;;;;;5099388;28;20196;-66
2022/01/09 01:42:08;;;;;;;3.30;3.10;;;3.90;99.90;;;;;;5099128;28;20654;-65
2022/01/09 01:44:41;;;;;;;4.55;3.10;;;3.90;99.90;;;;;;5098418;27;20200;-66
2022/01/09 01:47:09;;;;;;;3.50;3.17;;;3.80;99.90;;;;;;5098742;28;20328;-68
2022/01/09 01:49:39;;;;;;;3.47;3.03;;;3.80;99.90;;;;;;5098733;28;20839;-66
2022/01/09 01:52:09;;;;;;;3.45;3.20;;;3.80;99.90;;;;;;5098319;28;20239;-65
2022/01/09 01:54:37;;;;;;;2.70;2.50;;;3.80;99.90;;;;;;5098206;28;20233;-66
2022/01/09 01:57:05;;;;;;;3.40;2.63;;;3.90;99.90;;;;;;5097986;28;20276;-66
2022/01/09 01:59:33;;;;;;;3.00;2.80;;;3.80;99.90;;;;;;5097586;27;20735;-64
2022/01/09 02:02:01;;;;;;;4.75;3.30;;;3.90;99.90;;;;;;5098540;28;20191;-65
2022/01/09 02:04:29;;;;;;;2.85;2.50;;;3.90;99.90;;;;;;5097750;28;20199;-66
2022/01/09 02:07:00;;;;;;;3.25;2.85;;;3.90;99.90;;;;;;5098415;28;20842;-67
2022/01/09 02:09:28;;;;;;;3.90;2.42;;;3.90;99.90;;;;;;5100297;28;20203;-67
2022/01/09 02:11:56;;;;;;;5.40;2.83;;;4.00;99.90;;;;;;5098604;28;20222;-66
2022/01/09 02:14:24;;;;;;;3.88;2.80;;;3.90;99.90;;;;;;5098407;28;20206;-65
2022/01/09 02:16:52;;;;;;;4.95;2.45;;;3.90;99.90;;;;;;5098430;27;20231;-65
2022/01/09 02:19:21;;;;;;;3.30;3.00;;;3.80;99.90;;;;;;5098542;28;20207;-63
2022/01/09 02:21:50;;;;;;;5.45;2.83;;;3.80;99.90;;;;;;5098205;28;20694;-63
2022/01/09 02:24:22;;;;;;;3.42;2.28;;;3.80;99.90;;;;;;5098591;28;20318;-66
2022/01/09 02:26:51;;;;;;;2.30;2.20;;;3.80;99.90;;;;;;5098563;28;20215;-65
2022/01/09 02:29:19;;;;;;;4.25;3.53;;;3.80;99.90;;;;;;5098509;28;20215;-65
2022/01/09 02:31:47;;;;;;;4.68;2.67;;;3.90;99.90;;;;;;5098223;28;20219;-66
2022/01/09 02:34:15;;;;;;;5.10;3.50;;;3.90;99.90;;;;;;5098276;28;20674;-66
2022/01/09 02:36:43;;;;;;;3.33;2.97;;;3.80;99.90;;;;;;5098218;28;20227;-65
2022/01/09 02:39:12;;;;;;;4.07;3.58;;;3.80;99.90;;;;;;5097935;28;20204;-67
2022/01/09 02:41:39;;;;;;;2.75;2.60;;;3.80;99.90;;;;;;5098378;28;20277;-66
2022/01/09 02:44:09;;;;;;;3.50;3.20;;;3.80;99.90;;;;;;5098215;28;20209;-66
2022/01/09 02:46:50;;;;;;;3.60;3.30;;;3.70;99.90;;;;;;5097593;28;20223;-67
2022/01/09 02:49:18;;;;;;;3.80;3.35;;;3.60;99.90;;;;;;5098037;28;20919;-66
2022/01/09 02:51:46;;;;;;;4.72;3.40;;;3.50;99.90;;;;;;5098197;28;20224;-66
2022/01/09 02:57:01;;;;;;;5.38;3.60;;;3.50;99.90;;;;;;5098581;28;20224;-66
2022/01/09 02:59:29;;;;;;;4.65;3.55;;;3.50;99.90;;;;;;5098531;28;20204;-65
2022/01/09 03:01:57;;;;;;;4.45;3.65;;;3.30;99.90;;;;;;5098332;28;20263;-65
2022/01/09 03:04:24;;;;;;;4.30;4.00;;;3.30;99.90;;;;;;5098378;28;20196;-64
2022/01/09 03:06:52;;;;;;;4.32;3.22;;;3.30;99.90;;;;;;5098723;28;20219;-64
2022/01/09 03:09:22;;;;;;;4.05;3.50;;;3.30;99.90;;;;;;5101768;28;20202;-65
2022/01/09 03:11:50;;;;;;;5.00;4.20;;;3.30;99.90;;;;;;5099692;28;20223;-64
2022/01/09 03:14:18;;;;;;;5.18;4.22;;;3.20;99.90;;;;;;5099784;28;20222;-65
2022/01/09 03:16:45;;;;;;;5.70;4.53;;;3.20;99.90;;;;;;5099662;27;20230;-64
2022/01/09 03:19:13;;;;;;;5.35;4.03;;;3.20;99.90;;;;;;5102123;28;20825;-65
2022/01/09 03:21:41;;;;;;;3.90;3.60;;;3.20;99.90;;;;;;5103806;28;20192;-66
2022/01/09 03:24:09;;;;;;;4.78;4.40;;;3.20;99.90;;;;;;5101760;27;20203;-68
2022/01/09 03:26:38;;;;;;;6.10;3.47;;;3.20;99.90;;;;;;5101786;28;20223;-64
2022/01/09 03:29:06;;;;;;;3.47;3.17;;;3.20;99.90;;;;;;5101955;28;20355;-65
2022/01/09 03:31:33;;;;;;;5.10;3.72;;;3.30;99.90;;;;;;5103828;28;20294;-65
2022/01/09 03:34:01;;;;;;;7.30;3.90;;;3.40;99.90;;;;;;5105923;28;20799;-65
2022/01/09 03:36:29;;;;;;;4.28;3.85;;;3.40;99.90;;;;;;5103526;28;20220;-65
2022/01/09 03:38:57;;;;;;;5.15;3.58;;;3.30;99.90;;;;;;5104077;28;20206;-66
2022/01/09 03:41:24;;;;;;;4.07;3.75;;;3.30;99.90;;;;;;5101958;28;20206;-67
2022/01/09 03:43:54;;;;;;;4.70;3.65;;;3.40;99.90;;;;;;5101821;28;20202;-64
2022/01/09 03:46:22;;;;;;;7.05;4.03;;;3.40;99.90;;;;;;5102017;28;20753;-65
2022/01/09 03:48:49;;;;;;;3.72;3.42;;;3.30;99.90;;;;;;5101351;28;20200;-65
2022/01/09 03:51:17;;;;;;;3.30;3.00;;;3.40;99.90;;;;;;5101055;28;20211;-66
2022/01/09 03:53:45;;;;;;;4.40;3.22;;;3.50;99.90;;;;;;5100940;28;20219;-66
2022/01/09 03:56:13;;;;;;;3.58;3.15;;;3.60;99.90;;;;;;5100612;28;20915;-64
2022/01/09 03:58:40;;;;;;;5.55;3.70;;;3.60;99.90;;;;;;5101198;28;20210;-66
2022/01/09 04:01:09;;;;;;;5.35;3.80;;;3.60;99.90;;;;;;5100999;28;20210;-65
2022/01/09 04:03:37;;;;;;;3.60;2.90;;;3.50;99.90;;;;;;5101612;28;20713;-64
2022/01/09 04:06:05;;;;;;;3.33;3.13;;;3.50;99.90;;;;;;5101410;28;20229;-65
2022/01/09 04:08:34;;;;;;;5.90;3.47;;;3.50;99.90;;;;;;5101992;28;20250;-64
2022/01/09 04:11:04;;;;;;;4.68;3.35;;;3.50;99.90;;;;;;5100941;27;20207;-65
2022/01/09 04:13:32;;;;;;;4.20;3.80;;;3.60;99.90;;;;;;5101024;28;20236;-65
2022/01/09 04:16:00;;;;;;;3.55;3.25;;;3.60;99.90;;;;;;5100381;28;20224;-67
2022/01/09 04:18:30;;;;;;;5.43;3.30;;;3.50;99.90;;;;;;5100818;28;20199;-66
2022/01/09 04:20:59;;;;;;;3.45;3.15;;;3.60;99.90;;;;;;5101002;28;20287;-66
2022/01/09 04:23:27;;;;;;;4.55;4.10;;;3.60;99.90;;;;;;5100335;27;20210;-66
2022/01/09 04:25:55;;;;;;;7.15;3.55;;;3.60;99.90;;;;;;5101125;28;20728;-64
2022/01/09 04:28:23;;;;;;;6.30;3.88;;;3.60;99.90;;;;;;5100285;28;20208;-65
2022/01/09 04:30:50;;;;;;;3.25;2.97;;;3.60;99.90;;;;;;5100936;28;20196;-66
2022/01/09 04:33:18;;;;;;;4.25;3.95;;;3.70;99.90;;;;;;5101232;28;20797;-66
2022/01/09 04:35:52;;;;;;;4.75;3.15;;;3.80;99.90;;;;;;5100790;28;20306;-66
2022/01/09 04:38:20;;;;;;;3.95;3.28;;;3.80;99.90;;;;;;5100718;28;20682;-66
2022/01/09 04:40:47;;;;;;;4.38;3.38;;;3.70;99.90;;;;;;5100937;28;20778;-65
2022/01/09 04:43:16;;;;;;;3.17;2.88;;;3.70;99.90;;;;;;5100231;27;20200;-64
2022/01/09 04:45:45;;;;;;;5.82;3.28;;;3.80;99.90;;;;;;5100274;28;20265;-66
2022/01/09 04:48:14;;;;;;;4.60;2.75;;;3.80;99.90;;;;;;5099904;28;20313;-67
2022/01/09 04:50:44;;;;;;;4.60;3.30;;;3.80;99.90;;;;;;5100955;28;20754;-64
2022/01/09 04:53:13;;;;;;;3.45;3.20;;;3.80;99.90;;;;;;5099764;28;20219;-66
2022/01/09 04:55:45;;;;;;;3.30;3.00;;;3.80;99.90;;;;;;5100408;28;20203;-65
2022/01/09 04:58:13;;;;;;;3.95;2.72;;;3.80;99.90;;;;;;5100643;28;20276;-65
2022/01/09 05:00:41;;;;;;;9.32;4.10;;;3.70;99.90;;;;;;5099808;28;20196;-65
2022/01/09 05:03:12;;;;;;;6.45;3.45;;;3.60;99.90;;;;;;5100739;28;20278;-65
2022/01/09 05:05:40;;;;;;;3.97;3.35;;;3.60;99.90;;;;;;5100154;28;20199;-65
2022/01/09 05:08:07;;;;;;;3.28;3.08;;;3.60;99.90;;;;;;5100456;28;20195;-68
2022/01/09 05:10:37;;;;;;;3.95;3.05;;;3.60;99.90;;;;;;5099831;27;20203;-65
2022/01/09 05:13:04;;;;;;;3.72;3.00;;;3.60;99.90;;;;;;5099984;28;20272;-68
2022/01/09 05:15:32;;;;;;;7.13;3.60;;;3.60;99.90;;;;;;5099667;28;20233;-68
2022/01/09 05:18:03;;;;;;;3.72;3.30;;;3.60;99.90;;;;;;5099780;28;20204;-66
2022/01/09 05:20:31;;;;;;;3.42;3.00;;;3.60;99.90;;;;;;5099497;28;20226;-68
2022/01/09 05:22:59;;;;;;;6.97;3.20;;;3.50;99.90;;;;;;5099985;28;20202;-67
2022/01/09 05:25:29;;;;;;;3.92;3.33;;;3.60;99.90;;;;;;5099976;28;20238;-66
2022/01/09 05:27:59;;;;;;;6.80;3.60;;;3.50;99.90;;;;;;5099407;28;20199;-66
2022/01/09 05:30:26;;;;;;;4.97;3.17;;;3.50;99.90;;;;;;5102461;28;20200;-66
2022/01/09 05:32:54;;;;;;;4.35;3.95;;;3.60;99.90;;;;;;5100065;28;20215;-66
2022/01/09 05:35:25;;;;;;;4.00;3.70;;;3.50;99.90;;;;;;5099806;28;20222;-66
2022/01/09 05:37:53;;;;;;;4.57;3.22;;;3.50;99.90;;;;;;5100404;28;20214;-65
2022/01/09 05:40:21;;;;;;;4.50;3.80;;;3.50;99.90;;;;;;5099743;28;20206;-66
2022/01/09 05:42:49;;;;;;;5.57;3.95;;;3.50;99.90;;;;;;5100276;28;20287;-66
2022/01/09 05:45:18;;;;;;;4.78;4.15;;;3.50;99.90;;;;;;5100654;28;20204;-66
2022/01/09 05:47:46;;;;;;;4.53;3.50;;;3.40;99.90;;;;;;5098955;27;20220;-65
2022/01/09 05:50:14;;;;;;;6.68;4.53;;;3.40;99.90;;;;;;5099128;28;20207;-66
2022/01/09 05:52:42;;;;;;;4.90;3.95;;;3.40;99.90;;;;;;5098530;28;20230;-67
2022/01/09 05:55:10;;;;;;;5.05;4.25;;;3.40;99.90;;;;;;5098635;28;20215;-66
2022/01/09 05:57:38;;;;;;;4.82;4.13;;;3.30;99.90;;;;;;5100649;28;20212;-64
2022/01/09 06:00:07;;;;;;;4.60;4.20;;;3.20;99.90;;;;;;5099084;28;20313;-67
2022/01/09 06:02:36;;;;;;;6.13;3.63;;;3.20;99.90;;;;;;5099150;28;20203;-66
2022/01/09 06:05:07;;;;;;;5.20;4.65;;;3.20;99.90;;;;;;5097989;28;20410;-66
2022/01/09 06:07:38;;;;;;;4.63;4.22;;;3.20;99.90;;;;;;5101478;27;20207;-66
2022/01/09 06:10:07;;;;;;;5.30;4.70;;;3.10;99.90;;;;;;5107143;27;20203;-66
2022/01/09 06:12:35;;;;;;;4.80;4.35;;;3.10;99.90;;;;;;5115245;28;20203;-66
2022/01/09 06:15:03;;;;;;;6.95;4.90;;;3.20;99.90;;;;;;5118843;28;20264;-65
2022/01/09 06:17:37;;;;;;;6.22;5.20;;;3.20;99.90;;;;;;5119135;27;20211;-66
2022/01/09 06:20:07;;;;;;;5.78;5.28;;;3.00;99.90;;;;;;5119277;28;20365;-65
2022/01/09 06:22:35;;;;;;;6.35;4.88;;;3.00;99.90;;;;;;5119507;28;20233;-66
2022/01/09 06:25:03;;;;;;;5.07;4.68;;;3.00;99.90;;;;;;5119172;28;20815;-66
2022/01/09 06:27:31;;;;;;;7.43;5.72;;;3.00;99.90;;;;;;5119205;27;20222;-68
2022/01/09 06:29:59;;;;;;;8.13;5.15;;;3.00;99.90;;;;;;5119321;28;20297;-67
2022/01/09 06:32:26;;;;;;;6.78;6.07;;;3.00;99.90;;;;;;5118945;27;20205;-66
2022/01/09 06:34:55;;;;;;;7.40;5.70;;;2.90;99.90;;;;;;5109130;28;20218;-67
2022/01/09 06:37:23;;;;;;;11.32;6.13;;;2.90;99.90;;;;;;5098275;28;20915;-65
2022/01/09 06:39:51;;;;;;;7.07;6.00;;;2.80;99.90;;;;;;5098590;28;20287;-66
2022/01/09 06:42:19;;;;;;;6.72;6.03;;;2.80;99.90;;;;;;5113904;27;20191;-64
2022/01/09 06:44:47;;;;;;;6.78;5.32;;;2.80;99.90;;;;;;5118447;28;20195;-67
2022/01/09 06:47:14;;;;;;;8.15;6.22;;;2.80;99.90;;;;;;5119074;27;20223;-66
2022/01/09 06:49:42;;;;;;;8.00;6.15;;;2.80;99.90;;;;;;5119264;28;20244;-64
2022/01/09 06:52:12;;;;;;;7.07;6.30;;;2.80;99.90;;;;;;5118721;27;20211;-64
2022/01/09 06:54:39;;;;;;;7.53;5.68;;;2.80;99.90;;;;;;5121893;27;20219;-63
2022/01/09 06:57:08;;;;;;;6.55;5.95;;;2.80;99.90;;;;;;5122844;27;20305;-64
2022/01/09 06:59:35;;;;;;;6.38;5.75;;;2.80;99.90;;;;;;5122660;27;20195;-63
2022/01/09 07:02:04;;;;;;;10.13;6.03;;;2.80;99.90;;;;;;5122669;27;20229;-64
2022/01/09 07:04:32;;;;;;;7.63;5.80;;;2.80;99.90;;;;;;5122253;27;21005;-64
2022/01/09 07:06:59;;;;;;;8.77;7.20;;;2.80;99.90;;;;;;5122309;27;20237;-64
2022/01/09 07:09:28;;;;;;;6.90;6.03;;;2.70;99.90;;;;;;5122514;27;20873;-64
2022/01/09 07:11:56;;;;;;;6.47;5.90;;;2.70;99.90;;;;;;5122555;27;20292;-61
2022/01/09 07:14:24;;;;;;;7.82;7.00;;;2.70;99.90;;;;;;5121959;27;20798;-64
2022/01/09 07:16:52;;;;;;;8.45;6.63;;;2.70;99.90;;;;;;5122434;27;20310;-63
2022/01/09 07:19:20;;;;;;;7.90;6.90;;;2.70;99.90;;;;;;5122573;27;20713;-64
2022/01/09 07:21:48;;;;;;;7.35;6.65;;;2.70;99.90;;;;;;5122820;27;20210;-64
2022/01/09 07:24:15;;;;;;;9.45;7.85;;;2.70;99.90;;;;;;5122245;27;20793;-64
2022/01/09 07:26:45;;;;;;;9.68;6.93;;;2.70;99.90;;;;;;5121988;27;20739;-62
2022/01/09 07:29:13;;;;;;;8.35;7.35;;;2.70;99.90;;;;;;5122516;27;20199;-64
2022/01/09 07:31:41;;;;;;;9.45;7.90;;;2.70;99.90;;;;;;5106151;27;20196;-63
2022/01/09 07:34:09;;;;;;;9.77;7.45;;;2.80;99.90;;;;;;5102786;28;20215;-64
2022/01/09 07:36:37;;;;;;;10.02;7.97;;;2.80;99.90;;;;;;5101958;28;20224;-62
2022/01/09 07:39:05;;;;;;;10.80;9.73;;;2.80;99.90;;;;;;5101961;28;20206;-64
2022/01/09 07:41:33;;;;;;;9.23;7.50;;;2.90;99.90;;;;;;5102108;28;20324;-64
2022/01/09 07:44:02;;;;;;;11.93;8.05;;;2.90;99.90;;;;;;5101887;28;20199;-64
2022/01/09 07:46:30;;;;;;;10.43;8.50;;;2.90;99.90;;;;;;5101726;28;20228;-63
2022/01/09 07:48:58;;;;;;;10.73;7.70;;;3.00;99.90;;;;;;5101675;27;20241;-63
2022/01/09 07:51:25;;;;;;;8.57;7.45;;;3.00;99.90;;;;;;5101037;28;20196;-64
2022/01/09 07:54:13;;;;;;;8.65;7.72;;;3.00;99.90;;;;;;5100858;28;20219;-64
2022/01/09 07:56:41;;;;;;;9.15;8.15;;;3.00;99.90;;;;;;5101489;28;20220;-64
2022/01/09 07:59:10;;;;;;;8.63;7.72;;;3.00;99.90;;;;;;5101373;28;20204;-63
2022/01/09 08:01:38;;;;;;;11.75;8.40;;;3.00;99.90;;;;;;5100877;28;20568;-63
2022/01/09 08:04:06;;;;;;;9.27;7.93;;;3.00;99.90;;;;;;5101982;27;20671;-63
2022/01/09 08:06:34;;;;;;;10.57;9.48;;;3.00;99.90;;;;;;5101905;28;20224;-64
2022/01/09 08:09:02;;;;;;;12.13;8.13;;;3.00;99.90;;;;;;5102601;28;20206;-63
2022/01/09 08:11:29;;;;;;;9.95;8.15;;;3.00;99.90;;;;;;5101476;28;20456;-63
2022/01/09 08:13:57;;;;;;;10.75;8.30;;;3.10;99.90;;;;;;5100575;28;20234;-63
2022/01/09 08:16:27;;;;;;;9.73;7.97;;;3.10;99.90;;;;;;5115555;27;20555;-63
2022/01/09 08:18:54;;;;;;;10.82;8.50;;;3.10;99.90;;;;;;5121268;27;20302;-64
2022/01/09 08:21:22;;;;;;;10.07;9.05;;;3.10;99.90;;;;;;5121166;27;20661;-63
2022/01/09 08:23:50;;;;;;;12.02;8.60;;;3.20;99.90;;;;;;5121408;27;20202;-64
2022/01/09 08:26:19;;;;;;;9.05;8.10;;;3.20;99.90;;;;;;5121146;27;20302;-65
2022/01/09 08:28:48;;;;;;;10.48;8.90;;;3.30;99.90;;;;;;5101720;28;20203;-64
2022/01/09 08:31:16;;;;;;;12.35;7.95;;;3.30;99.90;;;;;;5100553;28;20918;-64
2022/01/09 08:33:46;;;;;;;10.13;8.65;;;3.30;99.90;;;;;;5100978;28;20207;-66
2022/01/09 08:36:14;;;;;;;10.07;8.50;;;3.40;99.90;;;;;;5100016;28;21023;-65
2022/01/09 08:38:43;;;;;;;10.10;8.68;;;3.50;99.90;;;;;;5099581;27;20455;-65
2022/01/09 08:41:11;;;;;;;9.15;8.25;;;3.50;99.90;;;;;;5099808;28;20200;-68
2022/01/09 08:43:39;;;;;;;11.60;8.77;;;3.60;99.90;;;;;;5098915;28;20230;-68
2022/01/09 08:46:08;;;;;;;9.05;8.15;;;3.60;99.90;;;;;;5099436;28;20509;-67
2022/01/09 08:48:35;;;;;;;8.50;7.60;;;3.60;99.90;;;;;;5100226;28;20211;-68
2022/01/09 08:51:06;;;;;;;10.35;8.15;;;3.70;99.90;;;;;;5100389;28;20644;-67
2022/01/09 08:53:35;;;;;;;10.25;9.15;;;3.70;99.90;;;;;;5098951;28;20631;-68
2022/01/09 08:56:04;;;;;;;10.95;8.23;;;3.70;99.90;;;;;;5099733;28;20722;-67
2022/01/09 08:58:32;;;;;;;8.95;7.60;;;3.70;99.90;;;;;;5099895;28;20546;-67
2022/01/09 09:01:00;;;;;;;8.50;7.60;;;3.70;99.90;;;;;;5100045;28;20231;-66
2022/01/09 09:03:28;;;;;;;8.60;7.68;;;3.70;99.90;;;;;;5099741;28;20488;-66
2022/01/09 09:05:56;;;;;;;11.48;8.80;;;3.70;99.90;;;;;;5100091;28;20272;-68
2022/01/09 09:08:25;;;;;;;8.80;8.00;;;3.70;99.90;;;;;;5099157;27;20204;-68
2022/01/09 09:10:53;;;;;;;10.05;8.40;;;3.60;99.90;;;;;;5099926;28;20206;-66
2022/01/09 09:13:21;;;;;;;11.30;7.38;;;3.70;99.90;;;;;;5099364;28;20229;-68
2022/01/09 09:15:49;;;;;;;10.00;8.02;;;3.70;99.90;;;;;;5085508;28;20347;-69
2022/01/09 09:18:16;;;;;;;10.02;8.82;;;3.70;99.90;;;;;;5078343;28;20204;-67
2022/01/09 09:20:44;;;;;;;11.48;8.23;;;3.70;99.90;;;;;;5079108;28;20200;-68
2022/01/09 09:23:12;;;;;;;9.88;8.20;;;3.90;99.90;;;;;;5081760;28;20214;-67
2022/01/09 09:25:41;;;;;;;9.98;8.93;;;4.00;99.90;;;;;;5083679;28;20671;-66
2022/01/09 09:28:10;;;;;;;10.75;8.93;;;4.20;99.90;;;;;;5083353;28;20405;-66
2022/01/09 09:30:38;;;;;;;12.95;8.68;;;4.20;99.90;;;;;;5082429;28;20213;-69
2022/01/09 09:33:05;;;;;;;11.32;9.57;;;4.30;99.90;;;;;;5084503;27;20272;-66
2022/01/09 09:35:34;;;;;;;9.90;8.90;;;4.40;99.90;;;;;;5085260;28;20212;-66
2022/01/09 09:38:04;;;;;;;9.77;8.60;;;4.50;99.90;;;;;;5082573;28;20586;-66
2022/01/09 09:40:32;;;;;;;9.75;8.70;;;4.60;99.90;;;;;;5078418;28;20825;-66
2022/01/09 09:43:02;;;;;;;8.98;7.68;;;4.50;99.90;;;;;;5078114;28;20512;-65
2022/01/09 09:45:30;;;;;;;10.00;8.90;;;4.60;99.90;;;;;;5078176;28;20329;-67
2022/01/09 09:47:58;;;;;;;10.68;9.02;;;4.70;99.90;;;;;;5085687;28;20191;-67
2022/01/09 09:50:26;;;;;;;10.13;9.07;;;4.70;99.90;;;;;;5098383;27;20227;-67
2022/01/09 09:52:54;;;;;;;8.73;7.63;;;4.80;99.90;;;;;;5090319;28;20237;-66
2022/01/09 09:55:22;;;;;;;8.82;7.93;;;4.80;99.90;;;;;;5098794;28;20324;-67
2022/01/09 09:57:49;;;;;;;8.20;7.32;;;4.70;99.90;;;;;;5099089;28;20211;-65
2022/01/09 10:00:21;;;;;;;8.73;7.55;;;4.70;99.90;;;;;;5096794;28;20187;-68
2022/01/09 10:02:50;;;;;;;11.13;9.43;;;4.80;99.90;;;;;;5098956;27;20195;-69
2022/01/09 10:05:21;;;;;;;9.60;8.50;;;4.90;99.90;;;;;;5100641;28;20206;-65
2022/01/09 10:07:52;;;;;;;10.52;8.52;;;4.90;99.90;;;;;;5099429;28;20254;-67
2022/01/09 10:10:22;;;;;;;10.60;8.52;;;4.80;99.90;;;;;;5100511;28;20195;-64
2022/01/09 10:12:50;;;;;;;8.63;7.75;;;4.70;99.90;;;;;;5099823;28;20214;-64
2022/01/09 10:15:20;;;;;;;9.55;7.90;;;4.70;99.90;;;;;;5100554;28;20215;-63
2022/01/09 10:17:50;;;;;;;7.95;7.25;;;4.60;99.90;;;;;;5100176;28;20227;-62
2022/01/09 10:20:20;;;;;;;8.70;7.88;;;4.50;99.90;;;;;;5099014;27;20210;-66
2022/01/09 10:22:50;;;;;;;8.68;7.78;;;4.50;99.90;;;;;;5098696;28;20218;-67
2022/01/09 10:25:22;;;;;;;9.27;8.27;;;4.50;99.90;;;;;;5078507;28;20192;-68
2022/01/09 10:27:51;;;;;;;11.20;8.43;;;4.50;99.90;;;;;;5079950;28;20243;-67
2022/01/09 10:30:23;;;;;;;10.95;8.38;;;4.50;99.90;;;;;;5082607;28;20203;-68
2022/01/09 10:32:56;;;;;;;7.45;6.75;;;4.40;99.90;;;;;;5082553;28;20202;-66
2022/01/09 10:35:26;;;;;;;9.40;7.97;;;4.40;99.90;;;;;;5080942;28;20265;-66
2022/01/09 10:38:08;;;;;;;7.93;6.72;;;4.30;99.90;;;;;;5080689;28;20210;-67
2022/01/09 10:40:38;;;;;;;7.75;7.00;;;4.30;99.90;;;;;;5081669;28;20453;-66
2022/01/09 10:43:08;;;;;;;7.80;7.15;;;4.30;99.90;;;;;;5082938;27;20291;-67
2022/01/09 10:45:41;;;;;;;7.78;6.93;;;4.20;99.90;;;;;;5081940;28;20287;-67
2022/01/09 10:48:12;;;;;;;7.25;6.53;;;4.20;99.90;;;;;;5081010;28;20314;-67
2022/01/09 10:50:44;;;;;;;7.80;7.00;;;4.20;99.90;;;;;;5081914;28;20384;-67
2022/01/09 10:53:21;;;;;;;7.75;7.07;;;4.20;99.90;;;;;;5082525;28;20300;-66
2022/01/09 10:56:05;;;;;;;8.35;6.75;;;4.30;99.90;;;;;;5083525;28;20620;-67
2022/01/09 10:58:35;;;;;;;6.47;5.88;;;4.30;99.90;;;;;;5082111;27;20455;-66
2022/01/09 11:01:16;;;;;;;7.45;6.78;;;4.20;99.90;;;;;;5081165;28;20200;-67
2022/01/09 11:03:46;;;;;;;7.95;6.45;;;4.20;99.90;;;;;;5080699;28;20585;-68
2022/01/09 11:06:15;;;;;;;6.88;6.25;;;4.30;99.90;;;;;;5081145;28;20586;-68
2022/01/09 11:08:44;;;;;;;7.05;6.40;;;4.20;99.90;;;;;;5080832;27;20269;-68
2022/01/09 11:11:21;;;;;;;6.20;5.80;;;4.20;99.90;;;;;;5080921;28;20200;-68
2022/01/09 11:13:51;;;;;;;5.78;5.25;;;4.20;99.90;;;;;;5079655;28;20204;-66
2022/01/09 11:16:34;;;;;;;7.55;6.43;;;4.20;99.90;;;;;;5080222;28;20232;-67
2022/01/09 11:19:05;;;;;;;6.30;5.22;;;4.20;99.90;;;;;;5080993;28;20472;-66
2022/01/09 11:21:33;;;;;;;6.53;5.50;;;4.20;99.90;;;;;;5080937;28;20231;-67
2022/01/09 11:24:13;;;;;;;7.25;6.40;;;4.30;99.90;;;;;;5079816;28;20230;-68
2022/01/09 11:26:50;;;;;;;7.72;6.93;;;4.30;99.90;;;;;;5080280;28;20582;-68
2022/01/09 11:29:24;;;;;;;7.70;6.55;;;4.20;99.90;;;;;;5080678;28;20210;-68
2022/01/09 11:32:03;;;;;;;6.70;6.05;;;4.30;99.90;;;;;;5080341;28;20206;-68
2022/01/09 11:34:48;;;;;;;10.20;6.50;;;4.30;99.90;;;;;;5079908;27;20679;-69
2022/01/09 11:37:27;;;;;;;5.82;5.43;;;4.30;99.90;;;;;;5080050;28;20664;-67
2022/01/09 11:39:55;;;;;;;8.30;6.90;;;4.40;99.90;;;;;;5078985;28;20204;-66
2022/01/09 11:42:23;;;;;;;7.00;6.00;;;4.50;99.90;;;;;;5079801;28;20247;-69
2022/01/09 11:44:53;;;;;;;6.53;5.93;;;4.50;99.90;;;;;;5079832;28;20200;-66
2022/01/09 11:47:23;;;;;;;7.80;5.90;;;4.60;99.90;;;;;;5080231;28;20297;-66
2022/01/09 11:50:09;;;;;;;6.18;5.43;;;4.60;99.90;;;;;;5079837;28;20691;-66
2022/01/09 11:52:59;;;;;;;6.55;6.05;;;4.70;99.90;;;;;;5080305;28;20294;-67
2022/01/09 11:55:35;;;;;;;6.97;5.70;;;4.80;99.90;;;;;;5079812;28;20201;-67
2022/01/09 11:58:06;;;;;;;7.18;6.47;;;4.80;99.90;;;;;;5079699;28;20196;-67
2022/01/09 12:00:36;;;;;;;7.65;6.95;;;4.80;99.90;;;;;;5079484;28;20205;-66
2022/01/09 12:03:36;;;;;;;7.00;6.03;;;4.80;99.90;;;;;;5079384;28;20212;-66
2022/01/09 12:06:05;;;;;;;7.05;6.35;;;4.80;99.90;;;;;;5079534;28;20441;-67
2022/01/09 12:09:10;;;;;;;7.85;6.63;;;4.80;99.90;;;;;;5079249;27;20394;-66
2022/01/09 12:12:06;;;;;;;7.55;6.80;;;4.90;99.90;;;;;;5079844;28;20586;-67
2022/01/09 12:15:03;;;;;;;9.63;6.35;;;4.90;99.90;;;;;;5079525;28;20223;-65
2022/01/09 12:17:39;;;;;;;9.52;6.38;;;4.90;99.90;;;;;;5079336;28;20664;-66
2022/01/09 12:20:11;;;;;;;7.80;7.00;;;4.90;99.90;;;;;;5078871;28;20449;-66
2022/01/09 12:22:50;;;;;;;8.65;7.85;;;4.90;99.90;;;;;;5079149;28;20644;-65
2022/01/09 12:25:50;;;;;;;10.70;7.47;;;4.90;99.90;;;;;;5079023;28;20247;-66
2022/01/09 12:28:20;;;;;;;7.75;6.95;;;4.90;99.90;;;;;;5077856;28;20235;-66
2022/01/09 12:30:52;;;;;;;8.02;6.93;;;5.00;99.90;;;;;;5078956;28;20284;-66
2022/01/09 12:33:50;;;;;;;7.68;6.97;;;5.10;99.90;;;;;;5078129;27;20679;-68
2022/01/09 12:36:23;;;;;;;8.32;7.53;;;5.10;99.90;;;;;;5078909;28;20292;-67
2022/01/09 12:38:56;;;;;;;7.80;7.07;;;5.20;99.90;;;;;;5078371;28;20763;-63
2022/01/09 12:41:27;;;;;;;8.75;8.02;;;5.20;99.90;;;;;;5078900;28;20234;-64
2022/01/09 12:44:06;;;;;;;8.00;7.20;;;5.30;99.90;;;;;;5078487;28;20367;-67
2022/01/09 12:46:35;;;;;;;9.15;7.07;;;5.40;99.90;;;;;;5079335;28;20223;-67
2022/01/09 12:49:06;;;;;;;8.05;7.25;;;5.40;99.90;;;;;;5078415;28;20235;-63
2022/01/09 12:51:36;;;;;;;8.20;6.85;;;5.40;99.90;;;;;;5078456;28;20296;-64
2022/01/09 12:54:06;;;;;;;8.50;6.63;;;5.40;99.90;;;;;;5079168;28;20460;-63
2022/01/09 12:56:35;;;;;;;8.80;6.88;;;5.50;99.90;;;;;;5087789;28;20216;-65
2022/01/09 12:59:07;;;;;;;6.13;5.45;;;5.50;99.90;;;;;;5100196;28;20196;-65
2022/01/09 13:01:39;;;;;;;10.23;5.90;;;5.50;99.90;;;;;;5099841;28;20192;-65
2022/01/09 13:04:13;;;;;;;6.25;5.38;;;5.50;99.90;;;;;;5099463;27;20227;-65
2022/01/09 13:06:45;;;;;;;6.00;5.35;;;5.50;99.90;;;;;;5099891;28;20437;-65
2022/01/09 13:09:16;;;;;;;6.70;4.75;;;5.40;99.90;;;;;;5099222;28;20306;-65
2022/01/09 13:11:54;;;;;;;5.60;5.10;;;5.30;99.90;;;;;;5096917;28;20205;-64